createdAt,value
2022-12-05T00:04:02.184Z,23.89
2022-12-05T00:09:02.007Z,25.00
2022-12-05T00:14:01.935Z,24.50
2022-12-05T00:19:01.886Z,25.00
2022-12-05T00:24:01.815Z,25.29
2022-12-05T00:29:01.753Z,24.89
2022-12-05T00:34:01.685Z,24.50
2022-12-05T00:39:01.629Z,24.29
2022-12-05T00:44:01.561Z,25.70
2022-12-05T00:49:01.502Z,24.89
2022-12-05T00:54:01.435Z,24.39
2022-12-05T00:59:01.387Z,26.50
2022-12-05T01:04:01.307Z,24.10
2022-12-05T01:09:01.259Z,27.50
2022-12-05T01:14:01.180Z,23.89
2022-12-05T01:19:01.140Z,24.29
2022-12-05T01:24:01.059Z,25.00
2022-12-05T01:29:01.101Z,25.29
2022-12-05T01:34:00.926Z,23.89
2022-12-05T01:39:00.870Z,24.70
2022-12-05T01:44:00.799Z,26.10
2022-12-05T01:49:00.744Z,24.60
2022-12-05T01:54:00.684Z,21.20
2022-12-05T01:59:00.617Z,20.79
2022-12-05T02:04:00.545Z,20.79
2022-12-05T02:09:00.489Z,21.70
2022-12-05T02:14:00.418Z,20.29
2022-12-05T02:19:00.373Z,20.00
2022-12-05T02:24:00.290Z,20.60
2022-12-05T02:29:00.245Z,19.79
2022-12-05T02:34:00.163Z,21.00
2022-12-05T02:39:00.119Z,21.00
2022-12-05T02:44:00.037Z,19.70
2022-12-05T02:48:59.991Z,19.20
2022-12-05T02:53:59.911Z,19.70
2022-12-05T02:58:59.865Z,19.39
2022-12-05T03:03:59.845Z,19.29
2022-12-05T03:08:59.738Z,25.10
2022-12-05T03:13:59.656Z,17.60
2022-12-05T03:18:59.612Z,17.39
2022-12-05T03:23:59.530Z,16.70
2022-12-05T03:28:59.480Z,15.19
2022-12-05T03:33:59.401Z,15.39
2022-12-05T03:38:59.345Z,15.69
2022-12-05T03:43:59.274Z,14.30
2022-12-05T03:48:59.219Z,15.50
2022-12-05T03:53:59.151Z,13.30
2022-12-05T03:58:59.093Z,12.19
2022-12-05T04:03:59.056Z,12.30
2022-12-05T04:08:58.967Z,11.19
2022-12-05T04:13:58.897Z,11.69
2022-12-05T04:18:58.857Z,10.69
2022-12-05T04:23:58.776Z,10.10
2022-12-05T04:28:58.729Z,10.30
2022-12-05T04:33:58.651Z,10.69
2022-12-05T04:38:58.603Z,9.80
2022-12-05T04:43:58.524Z,10.39
2022-12-05T04:48:58.481Z,9.89
2022-12-05T04:53:58.397Z,9.60
2022-12-05T04:58:58.345Z,10.00
2022-12-05T05:03:58.272Z,9.69
2022-12-05T05:08:58.217Z,10.50
2022-12-05T05:13:58.147Z,10.89
2022-12-05T05:18:58.097Z,9.50
2022-12-05T05:23:58.020Z,9.60
2022-12-05T05:28:57.965Z,9.60
2022-12-05T05:33:57.892Z,10.89
2022-12-05T05:38:57.841Z,11.30
2022-12-05T05:43:57.767Z,10.80
2022-12-05T05:48:57.716Z,10.39
2022-12-05T05:53:57.645Z,10.60
2022-12-05T05:58:57.586Z,9.30
2022-12-05T06:03:57.772Z,9.00
2022-12-05T06:08:57.461Z,9.89
2022-12-05T06:13:57.401Z,8.80
2022-12-05T06:18:57.337Z,8.89
2022-12-05T06:23:57.277Z,8.60
2022-12-05T06:28:57.212Z,9.00
2022-12-05T06:33:57.151Z,9.60
2022-12-05T06:38:57.086Z,9.10
2022-12-05T06:44:01.700Z,9.19
2022-12-05T06:48:56.960Z,26.60
2022-12-05T06:53:56.900Z,11.89
2022-12-05T06:58:56.834Z,9.00
2022-12-05T07:03:56.765Z,8.39
2022-12-05T07:08:56.706Z,8.39
2022-12-05T07:13:56.637Z,9.39
2022-12-05T07:18:56.583Z,8.19
2022-12-05T07:23:56.512Z,8.30
2022-12-05T07:28:56.455Z,7.80
2022-12-05T07:33:56.395Z,8.60
2022-12-05T07:38:56.329Z,8.30
2022-12-05T07:43:56.269Z,7.90
2022-12-05T07:48:56.204Z,8.39
2022-12-05T07:53:56.144Z,8.10
2022-12-05T07:58:56.080Z,8.50
2022-12-05T08:03:56.034Z,8.50
2022-12-05T08:08:55.953Z,9.69
2022-12-05T08:13:55.882Z,22.60
2022-12-05T08:18:55.826Z,11.69
2022-12-05T08:23:55.760Z,9.50
2022-12-05T08:28:55.703Z,8.10
2022-12-05T08:33:59.062Z,8.10
2022-12-05T08:38:55.582Z,9.00
2022-12-05T08:43:55.503Z,8.89
2022-12-05T08:48:55.449Z,9.39
2022-12-05T08:53:55.389Z,8.10
2022-12-05T08:59:01.252Z,9.39
2022-12-05T09:03:55.261Z,8.89
2022-12-05T09:08:55.194Z,8.39
2022-12-05T09:13:55.133Z,8.10
2022-12-05T09:18:55.064Z,8.10
2022-12-05T09:23:55.005Z,9.10
2022-12-05T09:28:54.945Z,8.39
2022-12-05T09:33:54.874Z,8.19
2022-12-05T09:38:54.813Z,7.80
2022-12-05T09:43:54.741Z,7.69
2022-12-05T09:48:54.686Z,8.50
2022-12-05T09:53:54.616Z,8.19
2022-12-05T09:58:54.561Z,8.30
2022-12-05T10:03:54.494Z,7.80
2022-12-05T10:08:54.435Z,8.89
2022-12-05T10:13:54.369Z,8.50
2022-12-05T10:18:54.304Z,7.59
2022-12-05T10:23:58.559Z,12.10
2022-12-05T10:28:54.175Z,12.60
2022-12-05T10:33:54.117Z,12.80
2022-12-05T10:38:54.049Z,11.60
2022-12-05T10:43:53.990Z,9.89
2022-12-05T10:48:53.930Z,8.80
2022-12-05T10:53:53.856Z,9.19
2022-12-05T10:58:53.809Z,7.90
2022-12-05T11:03:53.730Z,8.19
2022-12-05T11:09:09.001Z,8.89
2022-12-05T11:13:54.629Z,8.50
2022-12-05T11:18:53.564Z,8.60
2022-12-05T11:23:53.477Z,8.60
2022-12-05T11:28:53.430Z,8.10
2022-12-05T11:33:56.643Z,7.80
2022-12-05T11:38:53.291Z,8.10
2022-12-05T11:43:53.218Z,8.80
2022-12-05T11:48:53.162Z,7.69
2022-12-05T11:53:53.094Z,7.69
2022-12-05T11:58:53.036Z,8.30
2022-12-05T12:03:53.007Z,8.19
2022-12-05T12:08:52.908Z,9.00
2022-12-05T12:13:52.838Z,8.60
2022-12-05T12:18:52.788Z,8.19
2022-12-05T12:23:52.708Z,9.80
2022-12-05T12:28:52.656Z,10.60
2022-12-05T12:33:52.576Z,9.89
2022-12-05T12:38:52.525Z,9.80
2022-12-05T12:43:54.093Z,8.80
2022-12-05T12:48:52.401Z,10.00
2022-12-05T12:53:52.322Z,9.50
2022-12-05T12:58:52.255Z,10.39
2022-12-05T13:03:52.185Z,9.19
2022-12-05T13:08:52.127Z,9.30
2022-12-05T13:13:52.055Z,9.80
2022-12-05T13:18:51.997Z,11.00
2022-12-05T13:23:51.921Z,10.60
2022-12-05T13:28:51.874Z,9.39
2022-12-05T13:33:51.792Z,10.00
2022-12-05T13:38:51.734Z,9.10
2022-12-05T13:44:05.489Z,9.69
2022-12-05T13:48:52.630Z,10.00
2022-12-05T13:53:51.531Z,8.50
2022-12-05T13:58:51.477Z,9.19
2022-12-05T14:03:51.420Z,8.69
2022-12-05T14:08:51.343Z,9.10
2022-12-05T14:13:51.338Z,9.10
2022-12-05T14:18:51.219Z,9.19
2022-12-05T14:23:51.135Z,10.30
2022-12-05T14:28:51.088Z,9.89
2022-12-05T14:33:51.002Z,10.19
2022-12-05T14:38:50.956Z,10.00
2022-12-05T14:43:50.874Z,9.00
2022-12-05T14:48:50.836Z,9.89
2022-12-05T14:53:50.742Z,10.19
2022-12-05T14:58:50.685Z,28.89
2022-12-05T15:03:50.611Z,12.80
2022-12-05T15:08:50.561Z,10.80
2022-12-05T15:13:50.489Z,10.00
2022-12-05T15:18:50.426Z,9.69
2022-12-05T15:23:50.355Z,10.60
2022-12-05T15:28:50.325Z,10.60
2022-12-05T15:33:50.226Z,9.60
2022-12-05T15:38:50.186Z,10.60
2022-12-05T15:43:50.099Z,10.30
2022-12-05T15:48:50.051Z,9.60
2022-12-05T15:53:49.970Z,10.30
2022-12-05T15:58:49.925Z,9.60
2022-12-05T16:03:49.848Z,9.19
2022-12-05T16:08:49.798Z,9.60
2022-12-05T16:13:49.727Z,9.30
2022-12-05T16:18:49.661Z,8.89
2022-12-05T16:23:49.599Z,9.30
2022-12-05T16:28:49.535Z,9.60
2022-12-05T16:33:49.475Z,9.80
2022-12-05T16:38:49.408Z,10.50
2022-12-05T16:43:49.349Z,10.39
2022-12-05T16:48:49.282Z,9.69
2022-12-05T16:53:49.209Z,9.10
2022-12-05T16:58:49.155Z,9.80
2022-12-05T17:03:49.172Z,10.30
2022-12-05T17:08:49.029Z,10.19
2022-12-05T17:13:48.959Z,9.80
2022-12-05T17:18:48.900Z,10.50
2022-12-05T17:23:48.830Z,14.69
2022-12-05T17:28:48.779Z,11.50
2022-12-05T17:33:48.723Z,10.69
2022-12-05T17:38:48.653Z,11.50
2022-12-05T17:43:48.590Z,10.30
2022-12-05T17:48:48.526Z,10.39
2022-12-05T17:53:48.464Z,11.30
2022-12-05T17:58:48.435Z,9.39
2022-12-05T18:03:48.340Z,9.19
2022-12-05T18:08:48.274Z,10.00
2022-12-05T18:13:48.203Z,9.80
2022-12-05T18:18:48.147Z,8.69
2022-12-05T18:23:48.075Z,9.30
2022-12-05T18:28:48.021Z,10.30
2022-12-05T18:33:47.949Z,10.30
2022-12-05T18:38:47.896Z,8.80
2022-12-05T18:43:47.825Z,8.39
2022-12-05T18:48:48.229Z,9.80
2022-12-05T18:53:47.706Z,10.10
2022-12-05T18:58:47.638Z,11.39
2022-12-05T19:03:47.580Z,10.60
2022-12-05T19:08:47.510Z,10.10
2022-12-05T19:13:47.463Z,10.10
2022-12-05T19:18:47.388Z,10.30
2022-12-05T19:23:47.329Z,16.50
2022-12-05T19:28:47.259Z,10.39
2022-12-05T19:33:47.204Z,8.80
2022-12-05T19:38:47.143Z,9.50
2022-12-05T19:43:47.082Z,8.69
2022-12-05T19:48:47.025Z,9.19
2022-12-05T19:53:46.951Z,7.40
2022-12-05T19:58:46.890Z,8.10
2022-12-05T20:03:46.825Z,8.80
2022-12-05T20:08:46.766Z,8.60
2022-12-05T20:13:47.874Z,7.59
2022-12-05T20:18:46.630Z,9.00
2022-12-05T20:23:46.572Z,8.60
2022-12-05T20:28:46.501Z,8.89
2022-12-05T20:33:46.448Z,10.10
2022-12-05T20:38:46.377Z,9.30
2022-12-05T20:43:46.322Z,8.10
2022-12-05T20:48:46.248Z,8.19
2022-12-05T20:53:46.195Z,15.50
2022-12-05T20:58:46.140Z,9.19
2022-12-05T21:03:46.067Z,8.39
2022-12-05T21:08:46.003Z,8.30
2022-12-05T21:13:45.935Z,7.69
2022-12-05T21:18:45.878Z,8.80
2022-12-05T21:23:45.806Z,7.80
2022-12-05T21:28:45.748Z,8.19
2022-12-05T21:33:45.703Z,7.69
2022-12-05T21:38:47.441Z,7.40
2022-12-05T21:43:49.570Z,7.40
2022-12-05T21:48:45.477Z,6.69
2022-12-05T21:53:45.430Z,7.09
2022-12-05T21:58:45.352Z,7.00
2022-12-05T22:03:45.306Z,7.69
2022-12-05T22:08:45.223Z,7.90
2022-12-05T22:13:45.169Z,8.19
2022-12-05T22:18:45.101Z,8.50
2022-12-05T22:23:45.036Z,8.19
2022-12-05T22:28:44.963Z,8.80
2022-12-05T22:33:44.912Z,8.39
2022-12-05T22:38:44.833Z,8.60
2022-12-05T22:43:44.784Z,8.30
2022-12-05T22:48:44.707Z,7.40
2022-12-05T22:53:44.658Z,8.19
2022-12-05T22:58:44.576Z,7.50
2022-12-05T23:03:44.631Z,8.10
2022-12-05T23:08:44.450Z,7.59
2022-12-05T23:13:44.406Z,7.50
2022-12-05T23:18:44.324Z,6.80
2022-12-05T23:23:44.282Z,6.50
2022-12-05T23:28:44.197Z,6.59
2022-12-05T23:33:44.142Z,6.00
2022-12-05T23:38:44.070Z,6.30
2022-12-05T23:43:44.015Z,6.80
2022-12-05T23:48:43.943Z,7.19
2022-12-05T23:53:43.888Z,6.30
2022-12-05T23:58:43.816Z,5.59
